sensor_id;sensor_type;location;lat;lon;timestamp;P1;durP1;ratioP1;P2;durP2;ratioP2
8040;SDS011;4063;48.140;10.250;2023-09-18T00:02:24;7.80;;;6.25;;
8040;SDS011;4063;48.140;10.250;2023-09-18T00:04:50;6.40;;;5.80;;
8040;SDS011;4063;48.140;10.250;2023-09-18T00:07:16;7.50;;;6.80;;
8040;SDS011;4063;48.140;10.250;2023-09-18T00:09:42;7.25;;;6.65;;
8040;SDS011;4063;48.140;10.250;2023-09-18T00:12:08;7.82;;;6.40;;
8040;SDS011;4063;48.140;10.250;2023-09-18T00:14:35;7.88;;;6.82;;
8040;SDS011;4063;48.140;10.250;2023-09-18T00:17:01;7.10;;;6.40;;
8040;SDS011;4063;48.140;10.250;2023-09-18T00:19:27;8.70;;;5.95;;
8040;SDS011;4063;48.140;10.250;2023-09-18T00:21:53;6.70;;;6.10;;
8040;SDS011;4063;48.140;10.250;2023-09-18T00:24:19;8.77;;;6.03;;
8040;SDS011;4063;48.140;10.250;2023-09-18T00:26:45;6.60;;;6.03;;
8040;SDS011;4063;48.140;10.250;2023-09-18T00:29:13;7.65;;;5.97;;
8040;SDS011;4063;48.140;10.250;2023-09-18T00:31:39;7.03;;;6.43;;
8040;SDS011;4063;48.140;10.250;2023-09-18T00:34:05;6.88;;;6.25;;
8040;SDS011;4063;48.140;10.250;2023-09-18T00:36:31;9.23;;;6.15;;
8040;SDS011;4063;48.140;10.250;2023-09-18T00:38:57;7.25;;;6.10;;
8040;SDS011;4063;48.140;10.250;2023-09-18T00:41:23;7.63;;;6.93;;
8040;SDS011;4063;48.140;10.250;2023-09-18T00:43:49;8.82;;;6.60;;
8040;SDS011;4063;48.140;10.250;2023-09-18T00:46:15;7.88;;;6.45;;
8040;SDS011;4063;48.140;10.250;2023-09-18T00:48:41;6.43;;;5.93;;
8040;SDS011;4063;48.140;10.250;2023-09-18T00:51:08;8.25;;;6.00;;
8040;SDS011;4063;48.140;10.250;2023-09-18T00:53:35;7.00;;;5.75;;
8040;SDS011;4063;48.140;10.250;2023-09-18T00:56:03;8.20;;;5.88;;
8040;SDS011;4063;48.140;10.250;2023-09-18T00:58:29;6.65;;;5.95;;
8040;SDS011;4063;48.140;10.250;2023-09-18T01:00:55;7.22;;;6.53;;
8040;SDS011;4063;48.140;10.250;2023-09-18T01:03:21;7.70;;;6.53;;
8040;SDS011;4063;48.140;10.250;2023-09-18T01:05:50;7.93;;;7.22;;
8040;SDS011;4063;48.140;10.250;2023-09-18T01:08:16;6.80;;;6.20;;
8040;SDS011;4063;48.140;10.250;2023-09-18T01:11:26;9.23;;;6.20;;
8040;SDS011;4063;48.140;10.250;2023-09-18T01:13:37;7.25;;;6.55;;
8040;SDS011;4063;48.140;10.250;2023-09-18T01:16:25;7.65;;;6.95;;
8040;SDS011;4063;48.140;10.250;2023-09-18T01:18:50;8.75;;;7.05;;
8040;SDS011;4063;48.140;10.250;2023-09-18T01:21:16;7.47;;;6.70;;
8040;SDS011;4063;48.140;10.250;2023-09-18T01:23:42;7.25;;;6.55;;
8040;SDS011;4063;48.140;10.250;2023-09-18T01:26:08;8.52;;;6.43;;
8040;SDS011;4063;48.140;10.250;2023-09-18T01:28:34;7.10;;;6.50;;
8040;SDS011;4063;48.140;10.250;2023-09-18T01:31:00;6.63;;;6.03;;
8040;SDS011;4063;48.140;10.250;2023-09-18T01:33:26;7.22;;;6.53;;
8040;SDS011;4063;48.140;10.250;2023-09-18T01:35:53;8.00;;;6.95;;
8040;SDS011;4063;48.140;10.250;2023-09-18T01:38:20;8.52;;;7.18;;
8040;SDS011;4063;48.140;10.250;2023-09-18T01:40:47;7.38;;;6.68;;
8040;SDS011;4063;48.140;10.250;2023-09-18T01:43:13;7.03;;;6.32;;
8040;SDS011;4063;48.140;10.250;2023-09-18T01:45:39;7.55;;;6.30;;
8040;SDS011;4063;48.140;10.250;2023-09-18T01:48:05;6.85;;;6.25;;
8040;SDS011;4063;48.140;10.250;2023-09-18T01:50:31;7.38;;;6.68;;
8040;SDS011;4063;48.140;10.250;2023-09-18T01:53:00;7.03;;;6.43;;
8040;SDS011;4063;48.140;10.250;2023-09-18T01:55:27;7.20;;;6.47;;
8040;SDS011;4063;48.140;10.250;2023-09-18T01:57:54;7.05;;;6.35;;
8040;SDS011;4063;48.140;10.250;2023-09-18T02:00:20;9.95;;;6.45;;
8040;SDS011;4063;48.140;10.250;2023-09-18T02:02:46;8.30;;;6.55;;
8040;SDS011;4063;48.140;10.250;2023-09-18T02:05:12;7.85;;;6.60;;
8040;SDS011;4063;48.140;10.250;2023-09-18T02:07:38;7.45;;;6.35;;
8040;SDS011;4063;48.140;10.250;2023-09-18T02:10:04;6.55;;;5.97;;
8040;SDS011;4063;48.140;10.250;2023-09-18T02:12:31;9.73;;;7.35;;
8040;SDS011;4063;48.140;10.250;2023-09-18T02:14:57;6.65;;;5.90;;
8040;SDS011;4063;48.140;10.250;2023-09-18T02:17:29;7.20;;;6.60;;
8040;SDS011;4063;48.140;10.250;2023-09-18T02:19:55;7.05;;;6.40;;
8040;SDS011;4063;48.140;10.250;2023-09-18T02:22:21;8.57;;;7.32;;
8040;SDS011;4063;48.140;10.250;2023-09-18T02:24:47;7.40;;;6.70;;
8040;SDS011;4063;48.140;10.250;2023-09-18T02:27:13;7.93;;;6.50;;
8040;SDS011;4063;48.140;10.250;2023-09-18T02:29:39;7.60;;;6.93;;
8040;SDS011;4063;48.140;10.250;2023-09-18T02:32:05;7.57;;;6.88;;
8040;SDS011;4063;48.140;10.250;2023-09-18T02:34:31;7.32;;;6.63;;
8040;SDS011;4063;48.140;10.250;2023-09-18T02:36:58;8.20;;;6.40;;
8040;SDS011;4063;48.140;10.250;2023-09-18T02:39:24;7.38;;;6.63;;
8040;SDS011;4063;48.140;10.250;2023-09-18T02:41:50;7.03;;;6.43;;
8040;SDS011;4063;48.140;10.250;2023-09-18T02:44:16;7.20;;;6.50;;
8040;SDS011;4063;48.140;10.250;2023-09-18T02:46:42;7.30;;;6.38;;
8040;SDS011;4063;48.140;10.250;2023-09-18T02:49:08;9.48;;;6.03;;
8040;SDS011;4063;48.140;10.250;2023-09-18T02:51:34;7.15;;;6.55;;
8040;SDS011;4063;48.140;10.250;2023-09-18T02:54:00;8.38;;;6.95;;
8040;SDS011;4063;48.140;10.250;2023-09-18T02:56:27;7.43;;;6.72;;
8040;SDS011;4063;48.140;10.250;2023-09-18T02:58:53;7.63;;;6.82;;
8040;SDS011;4063;48.140;10.250;2023-09-18T03:01:19;6.97;;;6.38;;
8040;SDS011;4063;48.140;10.250;2023-09-18T03:03:45;7.38;;;6.78;;
8040;SDS011;4063;48.140;10.250;2023-09-18T03:06:11;7.38;;;6.78;;
8040;SDS011;4063;48.140;10.250;2023-09-18T03:08:38;7.28;;;6.20;;
8040;SDS011;4063;48.140;10.250;2023-09-18T03:11:10;7.05;;;6.35;;
8040;SDS011;4063;48.140;10.250;2023-09-18T03:13:36;7.28;;;6.60;;
8040;SDS011;4063;48.140;10.250;2023-09-18T03:16:03;7.30;;;6.60;;
8040;SDS011;4063;48.140;10.250;2023-09-18T03:18:29;7.32;;;6.20;;
8040;SDS011;4063;48.140;10.250;2023-09-18T03:20:55;7.10;;;6.40;;
8040;SDS011;4063;48.140;10.250;2023-09-18T03:23:21;7.35;;;6.40;;
8040;SDS011;4063;48.140;10.250;2023-09-18T03:25:47;7.30;;;6.60;;
8040;SDS011;4063;48.140;10.250;2023-09-18T03:28:13;8.23;;;6.50;;
8040;SDS011;4063;48.140;10.250;2023-09-18T03:30:39;7.60;;;6.93;;
8040;SDS011;4063;48.140;10.250;2023-09-18T03:33:05;7.63;;;6.95;;
8040;SDS011;4063;48.140;10.250;2023-09-18T03:35:32;8.38;;;6.75;;
8040;SDS011;4063;48.140;10.250;2023-09-18T03:38:10;7.55;;;6.82;;
8040;SDS011;4063;48.140;10.250;2023-09-18T03:40:36;7.65;;;6.93;;
8040;SDS011;4063;48.140;10.250;2023-09-18T03:43:03;7.28;;;6.57;;
8040;SDS011;4063;48.140;10.250;2023-09-18T03:45:29;7.90;;;6.03;;
8040;SDS011;4063;48.140;10.250;2023-09-18T03:47:55;7.15;;;6.45;;
8040;SDS011;4063;48.140;10.250;2023-09-18T03:50:21;9.60;;;6.30;;
8040;SDS011;4063;48.140;10.250;2023-09-18T03:52:47;7.10;;;6.50;;
8040;SDS011;4063;48.140;10.250;2023-09-18T03:55:13;13.23;;;6.57;;
8040;SDS011;4063;48.140;10.250;2023-09-18T03:57:39;8.43;;;6.47;;
8040;SDS011;4063;48.140;10.250;2023-09-18T04:00:05;7.82;;;7.13;;
8040;SDS011;4063;48.140;10.250;2023-09-18T04:02:32;7.30;;;6.55;;
8040;SDS011;4063;48.140;10.250;2023-09-18T04:04:59;6.60;;;5.95;;
8040;SDS011;4063;48.140;10.250;2023-09-18T04:07:25;11.82;;;7.65;;
8040;SDS011;4063;48.140;10.250;2023-09-18T04:09:51;6.80;;;6.07;;
8040;SDS011;4063;48.140;10.250;2023-09-18T04:12:17;6.78;;;5.80;;
8040;SDS011;4063;48.140;10.250;2023-09-18T04:14:43;6.75;;;6.15;;
8040;SDS011;4063;48.140;10.250;2023-09-18T04:17:09;8.05;;;6.28;;
8040;SDS011;4063;48.140;10.250;2023-09-18T04:19:35;6.18;;;5.63;;
8040;SDS011;4063;48.140;10.250;2023-09-18T04:22:01;7.20;;;5.30;;
8040;SDS011;4063;48.140;10.250;2023-09-18T04:24:27;5.93;;;5.40;;
8040;SDS011;4063;48.140;10.250;2023-09-18T04:26:53;5.25;;;4.85;;
8040;SDS011;4063;48.140;10.250;2023-09-18T04:29:19;6.03;;;5.43;;
8040;SDS011;4063;48.140;10.250;2023-09-18T04:31:45;5.80;;;5.25;;
8040;SDS011;4063;48.140;10.250;2023-09-18T04:34:12;5.70;;;5.20;;
8040;SDS011;4063;48.140;10.250;2023-09-18T04:36:38;5.93;;;5.35;;
8040;SDS011;4063;48.140;10.250;2023-09-18T04:39:04;6.85;;;6.25;;
8040;SDS011;4063;48.140;10.250;2023-09-18T04:41:31;8.40;;;6.20;;
8040;SDS011;4063;48.140;10.250;2023-09-18T04:43:56;6.22;;;5.63;;
8040;SDS011;4063;48.140;10.250;2023-09-18T04:46:23;7.53;;;5.55;;
8040;SDS011;4063;48.140;10.250;2023-09-18T04:48:49;6.60;;;6.00;;
8040;SDS011;4063;48.140;10.250;2023-09-18T04:51:15;9.73;;;5.78;;
8040;SDS011;4063;48.140;10.250;2023-09-18T04:53:41;9.15;;;6.40;;
8040;SDS011;4063;48.140;10.250;2023-09-18T04:56:08;15.98;;;9.60;;
8040;SDS011;4063;48.140;10.250;2023-09-18T04:58:35;12.90;;;9.65;;
8040;SDS011;4063;48.140;10.250;2023-09-18T05:01:04;10.95;;;8.15;;
8040;SDS011;4063;48.140;10.250;2023-09-18T05:03:32;11.38;;;8.25;;
8040;SDS011;4063;48.140;10.250;2023-09-18T05:05:59;13.52;;;7.78;;
8040;SDS011;4063;48.140;10.250;2023-09-18T05:08:25;10.50;;;7.20;;
8040;SDS011;4063;48.140;10.250;2023-09-18T05:10:50;7.63;;;6.80;;
8040;SDS011;4063;48.140;10.250;2023-09-18T05:13:16;10.27;;;6.50;;
8040;SDS011;4063;48.140;10.250;2023-09-18T05:15:43;6.75;;;6.07;;
8040;SDS011;4063;48.140;10.250;2023-09-18T05:18:09;7.15;;;6.22;;
8040;SDS011;4063;48.140;10.250;2023-09-18T05:20:34;6.85;;;6.15;;
8040;SDS011;4063;48.140;10.250;2023-09-18T05:23:01;8.30;;;7.10;;
8040;SDS011;4063;48.140;10.250;2023-09-18T05:25:27;7.47;;;6.63;;
8040;SDS011;4063;48.140;10.250;2023-09-18T05:27:56;9.05;;;6.65;;
8040;SDS011;4063;48.140;10.250;2023-09-18T05:30:25;7.72;;;6.35;;
8040;SDS011;4063;48.140;10.250;2023-09-18T05:32:56;7.93;;;6.13;;
8040;SDS011;4063;48.140;10.250;2023-09-18T05:35:22;11.85;;;5.60;;
8040;SDS011;4063;48.140;10.250;2023-09-18T05:37:49;10.73;;;5.90;;
8040;SDS011;4063;48.140;10.250;2023-09-18T05:40:19;8.23;;;7.20;;
8040;SDS011;4063;48.140;10.250;2023-09-18T05:42:45;7.47;;;6.15;;
8040;SDS011;4063;48.140;10.250;2023-09-18T05:45:12;10.52;;;6.40;;
8040;SDS011;4063;48.140;10.250;2023-09-18T05:47:38;8.25;;;5.93;;
8040;SDS011;4063;48.140;10.250;2023-09-18T05:50:11;7.85;;;6.05;;
8040;SDS011;4063;48.140;10.250;2023-09-18T05:52:45;9.45;;;6.60;;
8040;SDS011;4063;48.140;10.250;2023-09-18T05:55:11;8.68;;;6.28;;
8040;SDS011;4063;48.140;10.250;2023-09-18T05:57:38;9.00;;;5.43;;
8040;SDS011;4063;48.140;10.250;2023-09-18T06:00:04;9.15;;;5.97;;
8040;SDS011;4063;48.140;10.250;2023-09-18T06:02:30;6.07;;;5.07;;
8040;SDS011;4063;48.140;10.250;2023-09-18T06:04:56;5.63;;;4.90;;
8040;SDS011;4063;48.140;10.250;2023-09-18T06:07:25;7.50;;;4.93;;
8040;SDS011;4063;48.140;10.250;2023-09-18T06:09:51;6.03;;;4.82;;
8040;SDS011;4063;48.140;10.250;2023-09-18T06:12:18;5.88;;;4.53;;
8040;SDS011;4063;48.140;10.250;2023-09-18T06:14:44;5.50;;;4.80;;
8040;SDS011;4063;48.140;10.250;2023-09-18T06:17:11;15.07;;;4.75;;
8040;SDS011;4063;48.140;10.250;2023-09-18T06:19:37;6.70;;;4.53;;
8040;SDS011;4063;48.140;10.250;2023-09-18T06:22:04;4.95;;;4.35;;
8040;SDS011;4063;48.140;10.250;2023-09-18T06:24:30;8.80;;;4.13;;
8040;SDS011;4063;48.140;10.250;2023-09-18T06:26:56;7.75;;;4.72;;
8040;SDS011;4063;48.140;10.250;2023-09-18T06:29:22;6.57;;;4.28;;
8040;SDS011;4063;48.140;10.250;2023-09-18T06:31:49;4.35;;;3.95;;
8040;SDS011;4063;48.140;10.250;2023-09-18T06:34:16;4.93;;;4.10;;
8040;SDS011;4063;48.140;10.250;2023-09-18T06:36:42;5.03;;;4.28;;
8040;SDS011;4063;48.140;10.250;2023-09-18T06:39:08;6.25;;;5.03;;
8040;SDS011;4063;48.140;10.250;2023-09-18T06:41:34;8.18;;;4.88;;
8040;SDS011;4063;48.140;10.250;2023-09-18T06:44:00;6.85;;;4.95;;
8040;SDS011;4063;48.140;10.250;2023-09-18T06:46:29;7.22;;;4.97;;
8040;SDS011;4063;48.140;10.250;2023-09-18T06:48:55;5.75;;;5.25;;
8040;SDS011;4063;48.140;10.250;2023-09-18T06:51:23;7.13;;;5.40;;
8040;SDS011;4063;48.140;10.250;2023-09-18T06:53:49;7.65;;;5.70;;
8040;SDS011;4063;48.140;10.250;2023-09-18T06:56:15;10.23;;;5.75;;
8040;SDS011;4063;48.140;10.250;2023-09-18T06:58:40;8.98;;;5.97;;
8040;SDS011;4063;48.140;10.250;2023-09-18T07:01:06;7.03;;;6.22;;
8040;SDS011;4063;48.140;10.250;2023-09-18T07:03:34;6.68;;;5.28;;
8040;SDS011;4063;48.140;10.250;2023-09-18T07:06:01;4.97;;;4.45;;
8040;SDS011;4063;48.140;10.250;2023-09-18T07:08:27;11.32;;;5.30;;
8040;SDS011;4063;48.140;10.250;2023-09-18T07:10:53;7.28;;;4.55;;
8040;SDS011;4063;48.140;10.250;2023-09-18T07:13:19;11.48;;;4.30;;
8040;SDS011;4063;48.140;10.250;2023-09-18T07:15:45;10.07;;;5.15;;
8040;SDS011;4063;48.140;10.250;2023-09-18T07:18:12;8.40;;;5.30;;
8040;SDS011;4063;48.140;10.250;2023-09-18T07:20:45;6.45;;;4.45;;
8040;SDS011;4063;48.140;10.250;2023-09-18T07:23:11;4.82;;;3.90;;
8040;SDS011;4063;48.140;10.250;2023-09-18T07:25:37;9.40;;;4.65;;
8040;SDS011;4063;48.140;10.250;2023-09-18T07:28:05;6.88;;;4.20;;
8040;SDS011;4063;48.140;10.250;2023-09-18T07:30:31;6.07;;;4.10;;
8040;SDS011;4063;48.140;10.250;2023-09-18T07:32:57;9.85;;;4.53;;
8040;SDS011;4063;48.140;10.250;2023-09-18T07:35:24;8.55;;;4.38;;
8040;SDS011;4063;48.140;10.250;2023-09-18T07:37:50;5.30;;;3.78;;
8040;SDS011;4063;48.140;10.250;2023-09-18T07:40:16;6.60;;;4.38;;
8040;SDS011;4063;48.140;10.250;2023-09-18T07:42:42;7.90;;;4.20;;
8040;SDS011;4063;48.140;10.250;2023-09-18T07:45:09;9.55;;;4.25;;
8040;SDS011;4063;48.140;10.250;2023-09-18T07:47:35;4.38;;;3.38;;
8040;SDS011;4063;48.140;10.250;2023-09-18T07:50:01;15.60;;;4.15;;
8040;SDS011;4063;48.140;10.250;2023-09-18T07:52:27;8.23;;;3.60;;
8040;SDS011;4063;48.140;10.250;2023-09-18T07:54:53;6.75;;;3.35;;
8040;SDS011;4063;48.140;10.250;2023-09-18T07:57:19;6.75;;;3.75;;
8040;SDS011;4063;48.140;10.250;2023-09-18T07:59:45;10.55;;;3.40;;
8040;SDS011;4063;48.140;10.250;2023-09-18T08:02:11;9.10;;;3.50;;
8040;SDS011;4063;48.140;10.250;2023-09-18T08:04:37;9.23;;;3.50;;
8040;SDS011;4063;48.140;10.250;2023-09-18T08:07:04;17.52;;;5.38;;
8040;SDS011;4063;48.140;10.250;2023-09-18T08:09:33;13.43;;;5.57;;
8040;SDS011;4063;48.140;10.250;2023-09-18T08:12:02;6.70;;;3.20;;
8040;SDS011;4063;48.140;10.250;2023-09-18T08:14:29;11.35;;;4.75;;
8040;SDS011;4063;48.140;10.250;2023-09-18T08:16:58;18.92;;;6.80;;
8040;SDS011;4063;48.140;10.250;2023-09-18T08:19:25;6.28;;;3.20;;
8040;SDS011;4063;48.140;10.250;2023-09-18T08:21:52;14.85;;;5.43;;
8040;SDS011;4063;48.140;10.250;2023-09-18T08:24:19;10.35;;;4.25;;
8040;SDS011;4063;48.140;10.250;2023-09-18T08:26:45;6.13;;;3.10;;
8040;SDS011;4063;48.140;10.250;2023-09-18T08:29:12;8.93;;;3.10;;
8040;SDS011;4063;48.140;10.250;2023-09-18T08:31:38;12.02;;;3.08;;
8040;SDS011;4063;48.140;10.250;2023-09-18T08:34:04;9.75;;;3.22;;
8040;SDS011;4063;48.140;10.250;2023-09-18T08:36:30;7.30;;;3.47;;
8040;SDS011;4063;48.140;10.250;2023-09-18T08:38:56;10.13;;;3.08;;
8040;SDS011;4063;48.140;10.250;2023-09-18T08:41:23;13.95;;;2.92;;
8040;SDS011;4063;48.140;10.250;2023-09-18T08:43:52;10.10;;;3.15;;
8040;SDS011;4063;48.140;10.250;2023-09-18T08:46:20;18.23;;;7.38;;
8040;SDS011;4063;48.140;10.250;2023-09-18T08:48:47;8.52;;;3.42;;
8040;SDS011;4063;48.140;10.250;2023-09-18T08:51:14;11.80;;;4.43;;
8040;SDS011;4063;48.140;10.250;2023-09-18T08:53:40;9.02;;;3.45;;
8040;SDS011;4063;48.140;10.250;2023-09-18T08:56:06;13.40;;;3.63;;
8040;SDS011;4063;48.140;10.250;2023-09-18T08:58:35;8.82;;;4.20;;
8040;SDS011;4063;48.140;10.250;2023-09-18T09:01:06;8.40;;;3.50;;
8040;SDS011;4063;48.140;10.250;2023-09-18T09:03:35;7.47;;;3.22;;
8040;SDS011;4063;48.140;10.250;2023-09-18T09:06:01;13.32;;;3.70;;
8040;SDS011;4063;48.140;10.250;2023-09-18T09:08:28;6.60;;;3.03;;
8040;SDS011;4063;48.140;10.250;2023-09-18T09:10:54;11.88;;;3.28;;
8040;SDS011;4063;48.140;10.250;2023-09-18T09:13:23;13.02;;;3.53;;
8040;SDS011;4063;48.140;10.250;2023-09-18T09:15:51;8.63;;;3.67;;
8040;SDS011;4063;48.140;10.250;2023-09-18T09:18:19;13.65;;;3.38;;
8040;SDS011;4063;48.140;10.250;2023-09-18T09:21:01;11.75;;;3.42;;
8040;SDS011;4063;48.140;10.250;2023-09-18T09:23:42;8.07;;;3.05;;
8040;SDS011;4063;48.140;10.250;2023-09-18T09:26:13;7.47;;;3.00;;
8040;SDS011;4063;48.140;10.250;2023-09-18T09:28:40;9.18;;;3.00;;
8040;SDS011;4063;48.140;10.250;2023-09-18T09:31:08;8.07;;;2.70;;
8040;SDS011;4063;48.140;10.250;2023-09-18T09:33:35;9.77;;;3.30;;
8040;SDS011;4063;48.140;10.250;2023-09-18T09:36:04;6.47;;;2.80;;
8040;SDS011;4063;48.140;10.250;2023-09-18T09:38:31;6.80;;;2.83;;
8040;SDS011;4063;48.140;10.250;2023-09-18T09:40:57;8.02;;;3.13;;
8040;SDS011;4063;48.140;10.250;2023-09-18T09:43:27;7.15;;;2.42;;
8040;SDS011;4063;48.140;10.250;2023-09-18T09:45:57;5.85;;;3.03;;
8040;SDS011;4063;48.140;10.250;2023-09-18T09:48:23;8.10;;;3.15;;
8040;SDS011;4063;48.140;10.250;2023-09-18T09:50:50;4.97;;;3.03;;
8040;SDS011;4063;48.140;10.250;2023-09-18T09:53:18;4.50;;;2.50;;
8040;SDS011;4063;48.140;10.250;2023-09-18T09:55:44;10.07;;;2.80;;
8040;SDS011;4063;48.140;10.250;2023-09-18T09:58:10;6.20;;;3.20;;
8040;SDS011;4063;48.140;10.250;2023-09-18T10:00:40;8.40;;;2.75;;
8040;SDS011;4063;48.140;10.250;2023-09-18T10:03:15;4.50;;;2.58;;
8040;SDS011;4063;48.140;10.250;2023-09-18T10:05:42;5.35;;;3.20;;
8040;SDS011;4063;48.140;10.250;2023-09-18T10:10:39;9.77;;;2.90;;
8040;SDS011;4063;48.140;10.250;2023-09-18T10:13:09;6.03;;;2.63;;
8040;SDS011;4063;48.140;10.250;2023-09-18T10:15:36;6.80;;;2.58;;
8040;SDS011;4063;48.140;10.250;2023-09-18T10:18:04;7.07;;;3.00;;
8040;SDS011;4063;48.140;10.250;2023-09-18T10:20:33;8.15;;;2.83;;
8040;SDS011;4063;48.140;10.250;2023-09-18T10:23:02;8.73;;;3.08;;
8040;SDS011;4063;48.140;10.250;2023-09-18T10:25:30;8.20;;;2.90;;
8040;SDS011;4063;48.140;10.250;2023-09-18T10:27:57;5.45;;;2.70;;
8040;SDS011;4063;48.140;10.250;2023-09-18T10:30:26;8.90;;;3.10;;
8040;SDS011;4063;48.140;10.250;2023-09-18T10:32:53;5.50;;;2.83;;
8040;SDS011;4063;48.140;10.250;2023-09-18T10:35:19;6.18;;;3.20;;
8040;SDS011;4063;48.140;10.250;2023-09-18T10:37:46;4.88;;;2.65;;
8040;SDS011;4063;48.140;10.250;2023-09-18T10:40:16;12.57;;;3.45;;
8040;SDS011;4063;48.140;10.250;2023-09-18T10:42:42;8.95;;;3.10;;
8040;SDS011;4063;48.140;10.250;2023-09-18T10:45:11;6.82;;;2.72;;
8040;SDS011;4063;48.140;10.250;2023-09-18T10:47:40;6.60;;;3.13;;
8040;SDS011;4063;48.140;10.250;2023-09-18T10:50:08;4.43;;;2.90;;
8040;SDS011;4063;48.140;10.250;2023-09-18T10:52:35;4.95;;;3.00;;
8040;SDS011;4063;48.140;10.250;2023-09-18T10:55:01;7.82;;;2.83;;
8040;SDS011;4063;48.140;10.250;2023-09-18T10:57:34;7.53;;;2.88;;
8040;SDS011;4063;48.140;10.250;2023-09-18T11:00:01;8.23;;;3.20;;
8040;SDS011;4063;48.140;10.250;2023-09-18T11:02:38;6.60;;;2.85;;
8040;SDS011;4063;48.140;10.250;2023-09-18T11:05:04;7.90;;;4.38;;
8040;SDS011;4063;48.140;10.250;2023-09-18T11:07:30;5.00;;;2.97;;
8040;SDS011;4063;48.140;10.250;2023-09-18T11:09:56;9.45;;;2.75;;
8040;SDS011;4063;48.140;10.250;2023-09-18T11:12:23;5.15;;;2.70;;
8040;SDS011;4063;48.140;10.250;2023-09-18T11:15:07;7.45;;;2.95;;
8040;SDS011;4063;48.140;10.250;2023-09-18T11:20:16;4.72;;;2.90;;
8040;SDS011;4063;48.140;10.250;2023-09-18T11:22:46;5.65;;;2.65;;
8040;SDS011;4063;48.140;10.250;2023-09-18T11:25:29;6.53;;;2.97;;
8040;SDS011;4063;48.140;10.250;2023-09-18T11:27:56;6.25;;;2.40;;
8040;SDS011;4063;48.140;10.250;2023-09-18T11:30:22;4.03;;;2.38;;
8040;SDS011;4063;48.140;10.250;2023-09-18T11:32:51;4.72;;;2.15;;
8040;SDS011;4063;48.140;10.250;2023-09-18T11:35:18;8.00;;;2.67;;
8040;SDS011;4063;48.140;10.250;2023-09-18T11:37:45;5.68;;;2.35;;
8040;SDS011;4063;48.140;10.250;2023-09-18T11:40:26;4.32;;;2.22;;
8040;SDS011;4063;48.140;10.250;2023-09-18T11:43:18;5.30;;;2.28;;
8040;SDS011;4063;48.140;10.250;2023-09-18T11:45:44;4.78;;;2.42;;
8040;SDS011;4063;48.140;10.250;2023-09-18T11:48:15;4.18;;;1.92;;
8040;SDS011;4063;48.140;10.250;2023-09-18T11:50:42;2.80;;;1.88;;
8040;SDS011;4063;48.140;10.250;2023-09-18T11:53:09;1.77;;;1.58;;
8040;SDS011;4063;48.140;10.250;2023-09-18T11:55:37;5.07;;;2.10;;
8040;SDS011;4063;48.140;10.250;2023-09-18T11:58:03;3.42;;;1.58;;
8040;SDS011;4063;48.140;10.250;2023-09-18T12:00:30;2.53;;;1.63;;
8040;SDS011;4063;48.140;10.250;2023-09-18T12:02:57;2.22;;;1.65;;
8040;SDS011;4063;48.140;10.250;2023-09-18T12:05:23;3.25;;;1.70;;
8040;SDS011;4063;48.140;10.250;2023-09-18T12:07:51;2.17;;;1.73;;
8040;SDS011;4063;48.140;10.250;2023-09-18T12:10:18;2.50;;;1.40;;
8040;SDS011;4063;48.140;10.250;2023-09-18T12:12:46;3.40;;;1.55;;
8040;SDS011;4063;48.140;10.250;2023-09-18T12:15:12;2.80;;;1.90;;
8040;SDS011;4063;48.140;10.250;2023-09-18T12:17:40;3.90;;;1.95;;
8040;SDS011;4063;48.140;10.250;2023-09-18T12:20:06;2.55;;;1.63;;
8040;SDS011;4063;48.140;10.250;2023-09-18T12:22:33;3.42;;;1.73;;
8040;SDS011;4063;48.140;10.250;2023-09-18T12:25:35;2.55;;;1.95;;
8040;SDS011;4063;48.140;10.250;2023-09-18T12:27:54;2.75;;;1.95;;
8040;SDS011;4063;48.140;10.250;2023-09-18T12:30:21;2.22;;;2.03;;
8040;SDS011;4063;48.140;10.250;2023-09-18T12:32:47;3.05;;;2.00;;
8040;SDS011;4063;48.140;10.250;2023-09-18T12:35:14;3.25;;;1.90;;
8040;SDS011;4063;48.140;10.250;2023-09-18T12:37:40;2.45;;;1.95;;
8040;SDS011;4063;48.140;10.250;2023-09-18T12:40:07;3.55;;;2.28;;
8040;SDS011;4063;48.140;10.250;2023-09-18T12:42:39;2.45;;;2.00;;
8040;SDS011;4063;48.140;10.250;2023-09-18T12:45:08;2.85;;;2.13;;
8040;SDS011;4063;48.140;10.250;2023-09-18T12:47:35;2.10;;;1.92;;
8040;SDS011;4063;48.140;10.250;2023-09-18T12:50:04;2.03;;;1.92;;
8040;SDS011;4063;48.140;10.250;2023-09-18T12:52:31;5.22;;;1.90;;
8040;SDS011;4063;48.140;10.250;2023-09-18T12:54:58;3.72;;;1.77;;
8040;SDS011;4063;48.140;10.250;2023-09-18T12:57:28;3.20;;;1.70;;
8040;SDS011;4063;48.140;10.250;2023-09-18T12:59:54;1.80;;;1.63;;
8040;SDS011;4063;48.140;10.250;2023-09-18T13:02:20;4.85;;;2.22;;
8040;SDS011;4063;48.140;10.250;2023-09-18T13:04:53;4.50;;;1.90;;
8040;SDS011;4063;48.140;10.250;2023-09-18T13:07:19;1.65;;;1.52;;
8040;SDS011;4063;48.140;10.250;2023-09-18T13:09:58;2.67;;;1.90;;
8040;SDS011;4063;48.140;10.250;2023-09-18T13:12:49;1.67;;;1.52;;
8040;SDS011;4063;48.140;10.250;2023-09-18T13:15:28;2.22;;;1.60;;
8040;SDS011;4063;48.140;10.250;2023-09-18T13:17:55;3.70;;;2.20;;
8040;SDS011;4063;48.140;10.250;2023-09-18T13:20:25;3.53;;;1.88;;
8040;SDS011;4063;48.140;10.250;2023-09-18T13:22:54;2.25;;;1.80;;
8040;SDS011;4063;48.140;10.250;2023-09-18T13:25:23;3.08;;;2.05;;
8040;SDS011;4063;48.140;10.250;2023-09-18T13:27:51;3.53;;;1.77;;
8040;SDS011;4063;48.140;10.250;2023-09-18T13:30:17;3.03;;;1.67;;
8040;SDS011;4063;48.140;10.250;2023-09-18T13:32:45;4.10;;;1.60;;
8040;SDS011;4063;48.140;10.250;2023-09-18T13:35:13;2.45;;;1.40;;
8040;SDS011;4063;48.140;10.250;2023-09-18T13:37:39;2.60;;;1.30;;
8040;SDS011;4063;48.140;10.250;2023-09-18T13:40:06;4.82;;;1.50;;
8040;SDS011;4063;48.140;10.250;2023-09-18T13:42:33;2.42;;;1.73;;
8040;SDS011;4063;48.140;10.250;2023-09-18T13:45:00;3.40;;;1.80;;
8040;SDS011;4063;48.140;10.250;2023-09-18T13:47:26;1.40;;;1.13;;
8040;SDS011;4063;48.140;10.250;2023-09-18T13:49:52;4.18;;;1.40;;
8040;SDS011;4063;48.140;10.250;2023-09-18T13:52:21;2.50;;;1.40;;
8040;SDS011;4063;48.140;10.250;2023-09-18T13:54:47;3.88;;;1.42;;
8040;SDS011;4063;48.140;10.250;2023-09-18T13:57:16;1.92;;;1.48;;
8040;SDS011;4063;48.140;10.250;2023-09-18T13:59:43;2.83;;;1.70;;
8040;SDS011;4063;48.140;10.250;2023-09-18T14:02:09;1.60;;;1.35;;
8040;SDS011;4063;48.140;10.250;2023-09-18T14:04:36;1.95;;;1.52;;
8040;SDS011;4063;48.140;10.250;2023-09-18T14:07:02;3.63;;;1.52;;
8040;SDS011;4063;48.140;10.250;2023-09-18T14:09:28;2.85;;;1.58;;
8040;SDS011;4063;48.140;10.250;2023-09-18T14:11:55;2.92;;;1.48;;
8040;SDS011;4063;48.140;10.250;2023-09-18T14:14:24;2.60;;;1.50;;
8040;SDS011;4063;48.140;10.250;2023-09-18T14:16:50;4.50;;;1.50;;
8040;SDS011;4063;48.140;10.250;2023-09-18T14:19:17;2.10;;;1.30;;
8040;SDS011;4063;48.140;10.250;2023-09-18T14:21:43;3.40;;;1.38;;
8040;SDS011;4063;48.140;10.250;2023-09-18T14:24:09;2.17;;;1.48;;
8040;SDS011;4063;48.140;10.250;2023-09-18T14:26:36;1.77;;;1.48;;
8040;SDS011;4063;48.140;10.250;2023-09-18T14:29:06;1.80;;;1.40;;
8040;SDS011;4063;48.140;10.250;2023-09-18T14:31:33;2.45;;;1.40;;
8040;SDS011;4063;48.140;10.250;2023-09-18T14:33:59;2.38;;;1.63;;
8040;SDS011;4063;48.140;10.250;2023-09-18T14:36:25;3.65;;;1.38;;
8040;SDS011;4063;48.140;10.250;2023-09-18T14:38:51;4.72;;;1.60;;
8040;SDS011;4063;48.140;10.250;2023-09-18T14:41:17;2.33;;;1.40;;
8040;SDS011;4063;48.140;10.250;2023-09-18T14:43:46;1.90;;;1.38;;
8040;SDS011;4063;48.140;10.250;2023-09-18T14:46:12;1.75;;;1.63;;
8040;SDS011;4063;48.140;10.250;2023-09-18T14:48:39;1.83;;;1.40;;
8040;SDS011;4063;48.140;10.250;2023-09-18T14:51:05;3.42;;;1.50;;
8040;SDS011;4063;48.140;10.250;2023-09-18T14:53:32;4.70;;;1.45;;
8040;SDS011;4063;48.140;10.250;2023-09-18T14:55:59;3.30;;;1.40;;
8040;SDS011;4063;48.140;10.250;2023-09-18T14:58:25;1.45;;;1.33;;
8040;SDS011;4063;48.140;10.250;2023-09-18T15:00:51;2.63;;;1.40;;
8040;SDS011;4063;48.140;10.250;2023-09-18T15:03:17;2.38;;;1.30;;
8040;SDS011;4063;48.140;10.250;2023-09-18T15:05:43;1.60;;;1.40;;
8040;SDS011;4063;48.140;10.250;2023-09-18T15:08:10;2.80;;;1.45;;